Time;durP1;ratioP1;P1;durP2;ratioP2;P2;SDS_P1;SDS_P2;PMS_P1;PMS_P2;Temp;Humidity;BMP_temperature;BMP_pressure;BME280_temperature;BME280_humidity;BME280_pressure;Samples;Min_cycle;Max_cycle;Signal;HPM_P1;HPM_P2
2023/11/27 00:00:05;;;;;;;1.60;1.50;;;;;;;;;;5051319;28;20214;-83
2023/11/27 00:02:32;;;;;;;1.73;1.63;;;;;;;;;;5042161;28;20637;-84
2023/11/27 00:04:59;;;;;;;1.43;1.33;;;;;;;;;;5047870;28;20237;-82
2023/11/27 00:07:25;;;;;;;1.60;1.50;;;;;;;;;;5041901;28;20217;-82
2023/11/27 00:09:52;;;;;;;1.23;1.13;;;;;;;;;;5031216;28;20203;-83
2023/11/27 00:12:19;;;;;;;3.03;2.00;;;;;;;;;;5041941;28;20206;-82
2023/11/27 00:14:47;;;;;;;4.83;3.40;;;;;;;;;;5050859;28;20216;-82
2023/11/27 00:17:14;;;;;;;2.37;1.70;;;;;;;;;;5051284;28;20206;-82
2023/11/27 00:19:41;;;;;;;1.97;1.70;;;;;;;;;;5046941;28;20692;-83
2023/11/27 00:22:08;;;;;;;2.37;2.20;;;;;;;;;;5042254;28;20210;-83
2023/11/27 00:24:36;;;;;;;2.87;2.63;;;;;;;;;;5050782;28;20205;-83
2023/11/27 00:27:03;;;;;;;2.27;1.90;;;;;;;;;;5039780;28;20210;-83
2023/11/27 00:29:33;;;;;;;1.73;1.63;;;;;;;;;;5049220;28;20213;-82
2023/11/27 00:32:01;;;;;;;2.03;1.80;;;;;;;;;;5051238;28;20213;-82
2023/11/27 00:34:28;;;;;;;1.60;1.50;;;;;;;;;;5037867;28;20205;-83
2023/11/27 00:36:55;;;;;;;1.60;1.50;;;;;;;;;;5038607;28;20238;-82
2023/11/27 00:39:22;;;;;;;2.17;1.97;;;;;;;;;;5036998;28;20206;-82
2023/11/27 00:41:49;;;;;;;1.47;1.37;;;;;;;;;;5038110;28;20199;-82
2023/11/27 00:44:15;;;;;;;1.63;1.40;;;;;;;;;;5044574;28;20207;-82
2023/11/27 00:46:42;;;;;;;1.57;1.47;;;;;;;;;;5043941;28;20237;-83
2023/11/27 00:49:10;;;;;;;1.93;1.80;;;;;;;;;;5050594;28;20209;-84
2023/11/27 00:51:37;;;;;;;3.53;3.23;;;;;;;;;;5051032;28;20217;-83
2023/11/27 00:54:04;;;;;;;2.23;2.03;;;;;;;;;;5025067;28;20202;-84
2023/11/27 00:56:31;;;;;;;1.43;1.33;;;;;;;;;;5050733;28;20206;-85
2023/11/27 00:58:58;;;;;;;1.63;1.53;;;;;;;;;;5037969;28;20205;-83
2023/11/27 01:01:25;;;;;;;1.90;1.80;;;;;;;;;;5045100;28;20673;-84
2023/11/27 01:03:52;;;;;;;2.00;1.70;;;;;;;;;;5051224;28;20190;-83
2023/11/27 01:06:20;;;;;;;2.03;1.93;;;;;;;;;;5051067;28;20230;-83
2023/11/27 01:08:47;;;;;;;2.13;2.03;;;;;;;;;;5050406;28;20703;-83
2023/11/27 01:11:14;;;;;;;1.90;1.80;;;;;;;;;;5037779;28;20206;-83
2023/11/27 01:13:40;;;;;;;2.63;1.93;;;;;;;;;;5043071;28;20745;-82
2023/11/27 01:16:08;;;;;;;3.03;2.53;;;;;;;;;;5045515;28;20570;-83
2023/11/27 01:18:35;;;;;;;2.40;2.20;;;;;;;;;;5042693;28;20211;-84
2023/11/27 01:21:02;;;;;;;2.80;2.10;;;;;;;;;;5044354;28;20213;-83
2023/11/27 01:23:31;;;;;;;2.20;2.00;;;;;;;;;;5038880;28;20212;-83
2023/11/27 01:25:58;;;;;;;2.80;2.40;;;;;;;;;;5049460;28;20666;-83
2023/11/27 01:28:25;;;;;;;1.70;1.60;;;;;;;;;;5043081;28;20209;-84
2023/11/27 01:30:51;;;;;;;2.13;2.00;;;;;;;;;;5041740;28;20210;-83
2023/11/27 01:33:18;;;;;;;2.87;2.37;;;;;;;;;;5045240;28;20210;-83
2023/11/27 01:35:45;;;;;;;8.57;3.07;;;;;;;;;;5050174;28;20215;-83
2023/11/27 01:38:12;;;;;;;4.43;3.03;;;;;;;;;;5054355;28;20234;-83
2023/11/27 01:40:40;;;;;;;5.37;2.60;;;;;;;;;;5051315;28;20207;-84
2023/11/27 01:43:14;;;;;;;5.80;3.50;;;;;;;;;;5044670;28;20202;-84
2023/11/27 01:45:41;;;;;;;5.00;3.17;;;;;;;;;;5049049;28;20234;-84
2023/11/27 01:48:08;;;;;;;4.07;2.50;;;;;;;;;;5045710;28;20206;-84
2023/11/27 01:50:35;;;;;;;2.87;1.90;;;;;;;;;;5041200;28;20201;-83
2023/11/27 01:53:02;;;;;;;3.87;2.77;;;;;;;;;;5042627;28;20202;-83
2023/11/27 01:55:30;;;;;;;2.73;2.10;;;;;;;;;;5052523;28;20209;-83
2023/11/27 01:57:58;;;;;;;2.67;2.20;;;;;;;;;;5042201;28;20210;-83
2023/11/27 02:00:25;;;;;;;2.33;1.80;;;;;;;;;;5039772;28;20202;-83
2023/11/27 02:02:52;;;;;;;1.73;1.63;;;;;;;;;;5053943;28;20206;-83
2023/11/27 02:05:19;;;;;;;1.60;1.50;;;;;;;;;;5047700;28;20245;-84
2023/11/27 02:07:46;;;;;;;2.33;2.13;;;;;;;;;;5047009;28;20202;-83
2023/11/27 02:10:13;;;;;;;4.30;3.90;;;;;;;;;;5027757;28;20206;-83
2023/11/27 02:12:39;;;;;;;3.07;2.60;;;;;;;;;;5053801;28;20224;-86
2023/11/27 02:15:12;;;;;;;1.63;1.53;;;;;;;;;;5054223;28;20680;-84
2023/11/27 02:17:39;;;;;;;1.50;1.40;;;;;;;;;;5040754;28;20207;-84
2023/11/27 02:20:08;;;;;;;1.70;1.60;;;;;;;;;;5045286;28;20211;-84
2023/11/27 02:22:34;;;;;;;1.73;1.60;;;;;;;;;;5049000;28;20210;-84
2023/11/27 02:25:03;;;;;;;3.10;2.30;;;;;;;;;;5053501;28;20210;-83
2023/11/27 02:27:30;;;;;;;1.93;1.83;;;;;;;;;;5050513;28;20726;-83
2023/11/27 02:29:57;;;;;;;3.13;2.17;;;;;;;;;;5033471;28;20209;-83
2023/11/27 02:32:23;;;;;;;5.33;3.50;;;;;;;;;;5035125;28;20214;-84
2023/11/27 02:34:50;;;;;;;3.30;2.73;;;;;;;;;;5053325;28;20209;-84
2023/11/27 02:37:17;;;;;;;1.67;1.33;;;;;;;;;;5037625;28;20230;-84
2023/11/27 02:39:44;;;;;;;1.83;1.70;;;;;;;;;;5041950;28;20209;-84
2023/11/27 02:42:12;;;;;;;1.60;1.50;;;;;;;;;;5037787;28;20580;-84
2023/11/27 02:44:39;;;;;;;3.30;1.30;;;;;;;;;;5042619;28;20604;-84
2023/11/27 02:47:06;;;;;;;0.90;0.90;;;;;;;;;;5053427;28;20291;-83
2023/11/27 02:49:33;;;;;;;1.50;1.40;;;;;;;;;;5053189;28;20213;-84
2023/11/27 02:52:00;;;;;;;1.30;1.20;;;;;;;;;;5039838;28;20220;-83
2023/11/27 02:54:27;;;;;;;1.07;1.07;;;;;;;;;;5053526;28;20202;-84
2023/11/27 02:56:54;;;;;;;1.30;1.20;;;;;;;;;;5049598;28;20237;-84
2023/11/27 02:59:22;;;;;;;1.40;1.40;;;;;;;;;;5043293;28;20237;-84
2023/11/27 03:01:49;;;;;;;1.13;1.10;;;;;;;;;;5035883;28;20206;-84
2023/11/27 03:04:16;;;;;;;1.57;1.47;;;;;;;;;;5043889;28;20209;-83
2023/11/27 03:06:43;;;;;;;1.20;1.20;;;;;;;;;;5052615;28;20233;-84
2023/11/27 03:09:10;;;;;;;1.80;1.50;;;;;;;;;;5041698;28;20222;-84
2023/11/27 03:11:37;;;;;;;2.60;1.60;;;;;;;;;;5050933;28;20209;-84
2023/11/27 03:14:04;;;;;;;2.20;2.00;;;;;;;;;;5053030;28;20202;-83
2023/11/27 03:16:35;;;;;;;1.70;1.60;;;;;;;;;;5039170;28;20216;-82
2023/11/27 03:19:02;;;;;;;2.80;1.63;;;;;;;;;;5052419;28;20217;-83
2023/11/27 03:21:31;;;;;;;1.70;1.20;;;;;;;;;;5045758;28;20206;-83
2023/11/27 03:23:58;;;;;;;1.20;1.20;;;;;;;;;;5046028;28;20586;-84
2023/11/27 03:26:25;;;;;;;1.20;1.20;;;;;;;;;;5052163;28;20240;-84
2023/11/27 03:28:52;;;;;;;1.07;1.07;;;;;;;;;;5052011;28;20202;-84
2023/11/27 03:31:19;;;;;;;1.43;1.33;;;;;;;;;;5052379;28;20217;-84
2023/11/27 03:33:47;;;;;;;1.53;1.43;;;;;;;;;;5051432;28;20660;-84
2023/11/27 03:36:14;;;;;;;2.83;2.60;;;;;;;;;;5051781;28;20227;-84
2023/11/27 03:38:41;;;;;;;4.63;3.20;;;;;;;;;;5038551;28;20202;-85
2023/11/27 03:41:08;;;;;;;4.20;2.10;;;;;;;;;;5045220;28;20594;-84
2023/11/27 03:43:35;;;;;;;1.87;1.77;;;;;;;;;;5045293;28;20291;-84
2023/11/27 03:46:01;;;;;;;2.20;2.10;;;;;;;;;;5039466;28;20233;-84
2023/11/27 03:48:28;;;;;;;2.03;1.83;;;;;;;;;;5038858;28;20229;-85
2023/11/27 03:50:56;;;;;;;2.10;1.80;;;;;;;;;;5044524;28;20218;-83
2023/11/27 03:53:24;;;;;;;2.40;2.20;;;;;;;;;;5045668;28;20205;-85
2023/11/27 03:55:50;;;;;;;3.67;2.60;;;;;;;;;;5040593;28;20229;-85
2023/11/27 03:58:17;;;;;;;3.03;2.70;;;;;;;;;;5038823;28;20206;-85
2023/11/27 04:00:44;;;;;;;3.33;2.70;;;;;;;;;;5051758;28;20216;-86
2023/11/27 04:03:11;;;;;;;2.60;2.13;;;;;;;;;;5049718;28;20225;-85
2023/11/27 04:05:38;;;;;;;1.60;1.50;;;;;;;;;;5040133;28;20684;-84
2023/11/27 04:08:07;;;;;;;2.20;2.00;;;;;;;;;;5051562;28;20708;-84
2023/11/27 04:10:34;;;;;;;3.07;2.70;;;;;;;;;;5051619;28;20629;-84
2023/11/27 04:13:00;;;;;;;4.37;3.90;;;;;;;;;;5048533;28;20202;-84
2023/11/27 04:15:29;;;;;;;4.97;2.90;;;;;;;;;;5041608;28;20212;-84
2023/11/27 04:17:56;;;;;;;3.80;3.30;;;;;;;;;;5051139;28;20241;-83
2023/11/27 04:20:23;;;;;;;1.70;1.57;;;;;;;;;;5034038;28;20308;-84
2023/11/27 04:22:50;;;;;;;1.50;1.40;;;;;;;;;;5039426;28;20229;-84
2023/11/27 04:25:18;;;;;;;1.20;1.20;;;;;;;;;;5036177;28;20615;-84
2023/11/27 04:27:45;;;;;;;2.37;1.37;;;;;;;;;;5046117;28;20225;-85
2023/11/27 04:30:13;;;;;;;1.43;1.40;;;;;;;;;;5047540;28;20206;-84
2023/11/27 04:32:40;;;;;;;1.70;1.57;;;;;;;;;;5051703;28;20657;-84
2023/11/27 04:35:08;;;;;;;1.70;1.60;;;;;;;;;;5051466;28;20210;-83
2023/11/27 04:37:36;;;;;;;1.67;1.57;;;;;;;;;;5035826;28;20317;-85
2023/11/27 04:40:03;;;;;;;2.07;1.70;;;;;;;;;;5051846;28;20208;-86
2023/11/27 04:42:35;;;;;;;1.50;1.40;;;;;;;;;;5049148;28;20313;-89
2023/11/27 04:45:02;;;;;;;3.33;1.70;;;;;;;;;;5032302;28;20260;-90
2023/11/27 04:47:29;;;;;;;2.30;1.40;;;;;;;;;;5050286;28;20285;-90
2023/11/27 04:49:58;;;;;;;2.70;2.10;;;;;;;;;;5044285;28;20215;-89
2023/11/27 04:52:24;;;;;;;2.27;1.73;;;;;;;;;;5051001;28;20570;-91
2023/11/27 04:54:51;;;;;;;3.10;2.33;;;;;;;;;;5052057;28;20209;-91
2023/11/27 04:57:21;;;;;;;1.33;1.27;;;;;;;;;;5051760;28;20205;-89
2023/11/27 04:59:49;;;;;;;1.90;1.80;;;;;;;;;;5039811;28;20202;-89
2023/11/27 05:02:17;;;;;;;3.10;1.93;;;;;;;;;;5048648;28;20202;-89
2023/11/27 05:04:44;;;;;;;2.97;2.17;;;;;;;;;;5036626;28;20210;-89
2023/11/27 05:07:11;;;;;;;2.60;2.27;;;;;;;;;;5051753;28;20225;-89
2023/11/27 05:09:40;;;;;;;2.00;1.90;;;;;;;;;;5055561;28;20216;-89
2023/11/27 05:12:07;;;;;;;2.07;1.90;;;;;;;;;;5039306;28;20802;-89
2023/11/27 05:14:34;;;;;;;3.17;2.87;;;;;;;;;;5036041;28;20198;-89
2023/11/27 05:17:03;;;;;;;2.70;2.43;;;;;;;;;;5049227;28;20203;-89
2023/11/27 05:19:30;;;;;;;3.93;3.53;;;;;;;;;;5047992;28;20213;-89
2023/11/27 05:21:57;;;;;;;4.57;4.17;;;;;;;;;;5042908;28;20593;-88
2023/11/27 05:24:24;;;;;;;2.90;2.70;;;;;;;;;;5055441;28;20202;-89
2023/11/27 05:26:51;;;;;;;3.93;2.13;;;;;;;;;;5054843;28;20222;-89
2023/11/27 05:29:17;;;;;;;1.67;1.50;;;;;;;;;;5055876;28;20214;-90
2023/11/27 05:31:44;;;;;;;3.23;2.10;;;;;;;;;;5048904;28;20209;-85
2023/11/27 05:34:13;;;;;;;2.83;2.27;;;;;;;;;;5051025;28;20748;-82
2023/11/27 05:36:39;;;;;;;2.40;2.20;;;;;;;;;;5050432;28;20592;-83
2023/11/27 05:39:09;;;;;;;2.63;2.27;;;;;;;;;;5053916;28;20697;-83
2023/11/27 05:41:37;;;;;;;4.13;3.10;;;;;;;;;;5054522;28;20221;-83
2023/11/27 05:44:06;;;;;;;5.13;3.73;;;;;;;;;;5054141;28;20202;-83
2023/11/27 05:46:33;;;;;;;3.97;3.43;;;;;;;;;;5053877;28;20225;-82
2023/11/27 05:49:00;;;;;;;6.07;4.43;;;;;;;;;;5054159;28;20599;-83
2023/11/27 05:51:28;;;;;;;5.43;4.47;;;;;;;;;;5039657;28;20198;-83
2023/11/27 05:53:56;;;;;;;2.87;2.63;;;;;;;;;;5053418;28;20201;-82
2023/11/27 05:56:23;;;;;;;2.50;2.30;;;;;;;;;;5052871;28;20700;-82
2023/11/27 05:58:50;;;;;;;5.30;4.17;;;;;;;;;;5053313;28;20217;-83
2023/11/27 06:01:17;;;;;;;104.97;56.37;;;;;;;;;;5048161;28;20215;-83
2023/11/27 06:03:44;;;;;;;71.33;37.87;;;;;;;;;;5045086;28;20220;-82
2023/11/27 06:06:11;;;;;;;17.43;11.07;;;;;;;;;;5040287;28;20217;-83
2023/11/27 06:08:41;;;;;;;6.20;4.97;;;;;;;;;;5041244;28;20226;-83
2023/11/27 06:11:08;;;;;;;1.97;1.87;;;;;;;;;;5040477;28;20258;-82
2023/11/27 06:13:35;;;;;;;1.97;1.80;;;;;;;;;;5052239;28;20213;-82
2023/11/27 06:16:02;;;;;;;2.10;1.90;;;;;;;;;;5053126;28;20210;-83
2023/11/27 06:18:30;;;;;;;2.13;1.93;;;;;;;;;;5053504;28;20732;-83
2023/11/27 06:20:57;;;;;;;2.90;2.27;;;;;;;;;;5053276;28;20201;-84
2023/11/27 06:23:23;;;;;;;2.30;2.10;;;;;;;;;;5052870;28;20213;-83
2023/11/27 06:25:51;;;;;;;2.87;2.50;;;;;;;;;;5046453;28;20592;-82
2023/11/27 06:28:18;;;;;;;3.23;2.17;;;;;;;;;;5047139;28;20295;-83
2023/11/27 06:30:45;;;;;;;2.87;2.60;;;;;;;;;;5053035;28;20226;-83
2023/11/27 06:33:12;;;;;;;2.87;2.50;;;;;;;;;;5046797;28;20696;-83
2023/11/27 06:35:38;;;;;;;6.40;4.53;;;;;;;;;;5053192;28;20652;-83
2023/11/27 06:38:05;;;;;;;12.00;7.70;;;;;;;;;;5044521;28;20242;-82
2023/11/27 06:40:32;;;;;;;6.70;5.37;;;;;;;;;;5048376;28;20213;-82
2023/11/27 06:43:00;;;;;;;4.50;3.60;;;;;;;;;;5044062;28;20213;-82
2023/11/27 06:45:27;;;;;;;2.37;2.27;;;;;;;;;;5035735;28;20225;-82
2023/11/27 06:47:55;;;;;;;3.10;2.57;;;;;;;;;;5052874;28;20229;-82
2023/11/27 06:50:22;;;;;;;2.30;2.17;;;;;;;;;;5039367;28;20202;-82
2023/11/27 06:52:49;;;;;;;3.00;2.80;;;;;;;;;;5053467;28;20198;-82
2023/11/27 06:55:16;;;;;;;3.53;3.23;;;;;;;;;;5048959;28;20202;-82
2023/11/27 06:57:42;;;;;;;3.03;2.73;;;;;;;;;;5043388;28;20209;-82
2023/11/27 07:00:14;;;;;;;3.77;3.40;;;;;;;;;;5039088;28;20208;-81
2023/11/27 07:02:41;;;;;;;4.90;3.73;;;;;;;;;;5052953;28;20214;-82
2023/11/27 07:05:10;;;;;;;15.47;9.50;;;;;;;;;;5034202;28;20210;-82
2023/11/27 07:07:37;;;;;;;77.83;34.47;;;;;;;;;;5032759;28;20225;-82
2023/11/27 07:10:04;;;;;;;44.40;24.00;;;;;;;;;;5045381;28;20229;-82
2023/11/27 07:12:32;;;;;;;27.23;18.07;;;;;;;;;;5045933;28;20217;-81
2023/11/27 07:14:59;;;;;;;8.57;5.73;;;;;;;;;;5052717;28;20233;-81
2023/11/27 07:17:27;;;;;;;4.03;3.53;;;;;;;;;;5052065;28;20260;-84
2023/11/27 07:19:54;;;;;;;3.40;2.80;;;;;;;;;;5045086;28;20206;-82
2023/11/27 07:22:21;;;;;;;3.13;2.67;;;;;;;;;;5046050;28;20676;-82
2023/11/27 07:24:50;;;;;;;2.20;2.00;;;;;;;;;;5051777;28;20198;-82
2023/11/27 07:27:17;;;;;;;1.97;1.87;;;;;;;;;;5052216;28;20236;-82
2023/11/27 07:29:44;;;;;;;3.10;2.17;;;;;;;;;;5044414;28;20245;-81
2023/11/27 07:32:11;;;;;;;3.27;2.30;;;;;;;;;;5044689;28;20271;-82
2023/11/27 07:34:39;;;;;;;4.90;3.47;;;;;;;;;;5045337;28;20210;-81
2023/11/27 07:37:06;;;;;;;1.80;1.70;;;;;;;;;;5046072;28;20240;-81
2023/11/27 07:39:33;;;;;;;1.73;1.60;;;;;;;;;;5051821;28;20220;-82
2023/11/27 07:42:00;;;;;;;3.97;2.10;;;;;;;;;;5052051;28;20202;-82
2023/11/27 07:44:27;;;;;;;3.07;1.67;;;;;;;;;;5051697;28;20677;-82
2023/11/27 07:46:54;;;;;;;2.07;1.87;;;;;;;;;;5038413;28;20211;-82
2023/11/27 07:49:21;;;;;;;4.03;3.23;;;;;;;;;;5043881;28;20262;-81
2023/11/27 07:51:49;;;;;;;2.80;2.53;;;;;;;;;;5046890;28;20592;-81
2023/11/27 07:54:16;;;;;;;4.77;2.90;;;;;;;;;;5051749;28;20213;-81
2023/11/27 07:56:43;;;;;;;4.47;3.93;;;;;;;;;;5038164;28;20574;-82
2023/11/27 07:59:13;;;;;;;3.40;2.50;;;;;;;;;;5051796;28;20213;-81
2023/11/27 08:01:40;;;;;;;1.83;1.73;;;;;;;;;;5036438;28;20225;-80
2023/11/27 08:04:08;;;;;;;3.83;3.03;;;;;;;;;;5051223;28;20205;-81
2023/11/27 08:06:35;;;;;;;2.30;2.10;;;;;;;;;;5051437;28;20244;-80
2023/11/27 08:09:04;;;;;;;3.40;3.10;;;;;;;;;;5051178;28;20233;-81
2023/11/27 08:11:32;;;;;;;1.80;1.70;;;;;;;;;;5034969;28;20298;-80
2023/11/27 08:13:59;;;;;;;2.93;2.13;;;;;;;;;;5041731;28;20692;-81
2023/11/27 08:16:26;;;;;;;1.70;1.60;;;;;;;;;;5037687;28;20218;-80
2023/11/27 08:18:53;;;;;;;1.20;1.20;;;;;;;;;;5051289;28;20244;-81
2023/11/27 08:21:20;;;;;;;1.57;1.40;;;;;;;;;;5037666;28;20205;-79
2023/11/27 08:23:47;;;;;;;1.70;1.60;;;;;;;;;;5051704;28;20259;-81
2023/11/27 08:26:16;;;;;;;1.13;1.10;;;;;;;;;;5051433;28;20205;-80
2023/11/27 08:28:43;;;;;;;1.63;1.53;;;;;;;;;;5051207;28;20229;-80
2023/11/27 08:31:10;;;;;;;1.00;1.00;;;;;;;;;;5032743;28;20632;-80
2023/11/27 08:33:37;;;;;;;1.00;1.00;;;;;;;;;;5042814;28;20205;-80
2023/11/27 08:36:05;;;;;;;2.13;1.00;;;;;;;;;;5050523;28;20574;-80
2023/11/27 08:38:34;;;;;;;8.07;5.07;;;;;;;;;;5038716;28;20211;-80
2023/11/27 08:41:02;;;;;;;1.43;1.10;;;;;;;;;;5037465;28;20259;-80
2023/11/27 08:43:33;;;;;;;1.10;1.00;;;;;;;;;;5050945;28;20208;-85
2023/11/27 08:46:00;;;;;;;1.10;1.10;;;;;;;;;;5050910;28;20212;-80
2023/11/27 08:48:27;;;;;;;0.90;0.90;;;;;;;;;;5036466;28;20257;-80
2023/11/27 08:50:54;;;;;;;3.37;1.00;;;;;;;;;;5038959;28;20206;-79
2023/11/27 08:53:21;;;;;;;0.80;0.80;;;;;;;;;;5050504;28;20209;-79
2023/11/27 08:55:48;;;;;;;1.00;1.00;;;;;;;;;;5050729;28;20198;-79
2023/11/27 08:58:15;;;;;;;1.10;1.10;;;;;;;;;;5048822;28;20213;-79
2023/11/27 09:00:43;;;;;;;2.13;1.20;;;;;;;;;;5038799;28;20654;-79
2023/11/27 09:03:10;;;;;;;2.40;1.63;;;;;;;;;;5048461;28;20217;-80
2023/11/27 09:05:41;;;;;;;1.30;1.20;;;;;;;;;;5039558;28;20609;-79
2023/11/27 09:08:09;;;;;;;1.97;1.70;;;;;;;;;;5050166;28;20829;-79
2023/11/27 09:10:36;;;;;;;2.17;1.83;;;;;;;;;;5049832;28;20229;-79
2023/11/27 09:13:05;;;;;;;1.50;1.40;;;;;;;;;;5050687;28;20209;-79
2023/11/27 09:15:32;;;;;;;1.80;1.70;;;;;;;;;;5050273;28;20213;-79
2023/11/27 09:18:01;;;;;;;2.97;2.43;;;;;;;;;;5050590;28;20202;-79
2023/11/27 09:20:28;;;;;;;1.10;1.10;;;;;;;;;;5050018;28;20202;-80
2023/11/27 09:22:56;;;;;;;2.13;1.93;;;;;;;;;;5050093;28;20240;-81
2023/11/27 09:25:24;;;;;;;1.10;1.10;;;;;;;;;;5050897;28;20296;-80
2023/11/27 09:27:51;;;;;;;4.87;1.30;;;;;;;;;;5037036;28;20224;-80
2023/11/27 09:30:18;;;;;;;1.27;1.17;;;;;;;;;;5049693;28;20206;-80
2023/11/27 09:32:45;;;;;;;1.30;1.20;;;;;;;;;;5049345;28;20281;-80
2023/11/27 09:35:15;;;;;;;1.90;1.67;;;;;;;;;;5050521;28;20293;-81
2023/11/27 09:37:44;;;;;;;1.80;1.70;;;;;;;;;;5050166;28;20722;-81
2023/11/27 09:40:12;;;;;;;1.27;1.27;;;;;;;;;;5050063;28;20921;-82
2023/11/27 09:42:41;;;;;;;1.30;1.20;;;;;;;;;;5044095;28;20210;-81
2023/11/27 09:45:12;;;;;;;1.20;1.10;;;;;;;;;;5043550;28;20217;-82
2023/11/27 09:47:43;;;;;;;2.53;1.63;;;;;;;;;;5051916;28;20209;-81
2023/11/27 09:50:12;;;;;;;1.93;1.33;;;;;;;;;;5054103;28;20586;-82
2023/11/27 09:52:53;;;;;;;1.00;1.00;;;;;;;;;;5045307;28;20232;-81
2023/11/27 09:55:21;;;;;;;8.60;4.67;;;;;;;;;;5051568;28;20649;-82
2023/11/27 09:57:49;;;;;;;2.60;2.40;;;;;;;;;;5053823;28;20228;-82
2023/11/27 10:00:18;;;;;;;2.13;1.90;;;;;;;;;;5048563;28;20194;-82
2023/11/27 10:02:48;;;;;;;1.37;1.27;;;;;;;;;;5034023;28;20195;-82
2023/11/27 10:05:18;;;;;;;5.87;4.30;;;;;;;;;;5052695;28;20652;-82
2023/11/27 10:07:50;;;;;;;2.33;2.10;;;;;;;;;;5053588;28;20198;-83
2023/11/27 10:10:24;;;;;;;1.10;1.10;;;;;;;;;;5033904;28;20285;-81
2023/11/27 10:12:50;;;;;;;2.30;1.30;;;;;;;;;;5047209;28;20247;-81
2023/11/27 10:15:17;;;;;;;1.93;1.67;;;;;;;;;;5033585;28;20207;-81
2023/11/27 10:17:45;;;;;;;1.80;1.70;;;;;;;;;;5048857;28;20202;-81
2023/11/27 10:20:13;;;;;;;1.67;1.53;;;;;;;;;;5053397;28;20680;-82
2023/11/27 10:22:41;;;;;;;1.70;1.60;;;;;;;;;;5037874;28;20214;-81
2023/11/27 10:25:14;;;;;;;3.80;2.00;;;;;;;;;;5043450;28;20209;-82
2023/11/27 10:27:42;;;;;;;1.97;1.87;;;;;;;;;;5040375;28;20217;-81
2023/11/27 10:30:18;;;;;;;3.73;3.33;;;;;;;;;;5053362;28;20230;-80
2023/11/27 10:32:46;;;;;;;2.83;2.63;;;;;;;;;;5052160;28;20202;-81
2023/11/27 10:35:13;;;;;;;2.10;2.00;;;;;;;;;;5053384;28;20210;-81
2023/11/27 10:37:42;;;;;;;1.90;1.80;;;;;;;;;;5052811;28;20240;-82
2023/11/27 10:40:14;;;;;;;1.73;1.23;;;;;;;;;;5052985;28;20293;-81
2023/11/27 10:42:47;;;;;;;1.13;1.13;;;;;;;;;;5040143;28;20208;-81
2023/11/27 10:45:16;;;;;;;1.43;1.13;;;;;;;;;;5052775;28;20210;-82
2023/11/27 10:47:46;;;;;;;1.20;1.20;;;;;;;;;;5045883;28;20210;-81
2023/11/27 10:50:14;;;;;;;4.13;2.20;;;;;;;;;;5048162;28;20229;-81
2023/11/27 10:52:43;;;;;;;2.60;2.40;;;;;;;;;;5053243;28;20206;-81
2023/11/27 10:55:16;;;;;;;2.33;2.13;;;;;;;;;;5039865;28;20269;-81
2023/11/27 10:57:44;;;;;;;1.83;1.70;;;;;;;;;;5042880;28;20214;-82
2023/11/27 11:00:14;;;;;;;6.00;2.70;;;;;;;;;;5048725;28;20206;-82
2023/11/27 11:02:43;;;;;;;1.30;1.20;;;;;;;;;;5052685;28;20212;-81
2023/11/27 11:05:14;;;;;;;1.57;1.47;;;;;;;;;;5039326;28;20252;-82
2023/11/27 11:07:46;;;;;;;1.40;1.30;;;;;;;;;;5040934;28;20220;-81
2023/11/27 11:10:15;;;;;;;1.20;1.10;;;;;;;;;;5032182;28;20222;-82
2023/11/27 11:12:43;;;;;;;6.07;4.03;;;;;;;;;;5045369;28;20695;-81
2023/11/27 11:15:13;;;;;;;3.27;2.50;;;;;;;;;;5045980;28;20217;-81
2023/11/27 11:17:51;;;;;;;5.90;3.67;;;;;;;;;;5046429;28;20259;-82
2023/11/27 11:20:25;;;;;;;2.40;2.20;;;;;;;;;;5052306;28;20237;-82
2023/11/27 11:22:59;;;;;;;1.87;1.77;;;;;;;;;;5052729;28;20233;-82
2023/11/27 11:25:30;;;;;;;1.80;1.70;;;;;;;;;;5041306;28;20249;-81
2023/11/27 11:28:12;;;;;;;1.50;1.40;;;;;;;;;;5050418;28;20240;-81
2023/11/27 11:30:39;;;;;;;2.07;1.97;;;;;;;;;;5052097;28;20201;-83
2023/11/27 11:33:06;;;;;;;1.90;1.77;;;;;;;;;;5052489;28;20252;-82
2023/11/27 11:35:36;;;;;;;2.03;1.60;;;;;;;;;;5051214;28;20255;-82
2023/11/27 11:38:08;;;;;;;1.47;1.37;;;;;;;;;;5040721;28;20238;-82
2023/11/27 11:40:41;;;;;;;6.10;4.50;;;;;;;;;;5052283;28;20202;-82
2023/11/27 11:43:10;;;;;;;5.53;3.23;;;;;;;;;;5052485;28;20201;-83
2023/11/27 11:45:39;;;;;;;1.43;1.33;;;;;;;;;;5051827;28;20654;-82
2023/11/27 11:48:08;;;;;;;1.30;1.20;;;;;;;;;;5052107;28;20577;-84
2023/11/27 11:50:40;;;;;;;1.60;1.50;;;;;;;;;;5051785;28;20285;-81
2023/11/27 11:53:39;;;;;;;1.43;1.33;;;;;;;;;;5039126;28;20206;-81
2023/11/27 11:56:20;;;;;;;1.37;1.30;;;;;;;;;;5033346;28;20209;-81
2023/11/27 11:58:50;;;;;;;2.00;1.83;;;;;;;;;;5045765;28;20210;-82
2023/11/27 12:01:18;;;;;;;2.37;2.13;;;;;;;;;;5031906;28;20214;-83
2023/11/27 12:03:46;;;;;;;4.07;2.90;;;;;;;;;;5051620;28;20205;-82
2023/11/27 12:06:17;;;;;;;14.20;9.60;;;;;;;;;;5038457;28;20215;-83
2023/11/27 12:08:44;;;;;;;20.10;17.93;;;;;;;;;;5051652;28;20241;-82
2023/11/27 12:11:14;;;;;;;3.87;3.47;;;;;;;;;;5050473;28;20260;-83
2023/11/27 12:13:44;;;;;;;11.60;6.70;;;;;;;;;;5040164;28;20303;-82
2023/11/27 12:16:16;;;;;;;4.63;4.23;;;;;;;;;;5051203;28;20202;-83
2023/11/27 12:18:46;;;;;;;2.40;2.10;;;;;;;;;;5051328;28;20216;-83
2023/11/27 12:21:16;;;;;;;1.50;1.40;;;;;;;;;;5051139;28;20684;-84
2023/11/27 12:23:47;;;;;;;1.37;1.27;;;;;;;;;;5051183;28;20210;-82
2023/11/27 12:26:17;;;;;;;2.83;2.10;;;;;;;;;;5051301;28;20225;-84
2023/11/27 12:28:46;;;;;;;4.53;3.97;;;;;;;;;;5039224;28;20309;-83
2023/11/27 12:31:14;;;;;;;1.50;1.40;;;;;;;;;;5050308;28;20197;-83
2023/11/27 12:33:41;;;;;;;3.20;2.60;;;;;;;;;;5051415;28;20205;-83
2023/11/27 12:36:08;;;;;;;4.90;4.23;;;;;;;;;;5037584;28;20692;-83
2023/11/27 12:38:36;;;;;;;3.20;2.90;;;;;;;;;;5051150;28;20221;-82
2023/11/27 12:41:06;;;;;;;5.07;3.63;;;;;;;;;;5044697;28;20234;-82
2023/11/27 12:43:37;;;;;;;2.13;1.70;;;;;;;;;;5044517;28;20746;-82
2023/11/27 12:46:13;;;;;;;1.40;1.30;;;;;;;;;;5050888;28;20692;-82
2023/11/27 12:48:43;;;;;;;2.13;1.70;;;;;;;;;;5048400;28;20205;-83
2023/11/27 12:51:13;;;;;;;1.27;1.17;;;;;;;;;;5040499;28;20645;-84
2023/11/27 12:53:43;;;;;;;1.47;1.37;;;;;;;;;;5033939;28;20269;-83
2023/11/27 12:56:13;;;;;;;1.57;1.47;;;;;;;;;;5041484;28;20201;-84
2023/11/27 12:58:40;;;;;;;2.23;0.97;;;;;;;;;;5051039;28;20212;-83
2023/11/27 13:01:09;;;;;;;1.33;1.27;;;;;;;;;;5050890;28;20205;-82
2023/11/27 13:03:36;;;;;;;1.50;1.40;;;;;;;;;;5050964;28;20297;-83
2023/11/27 13:06:04;;;;;;;1.17;1.13;;;;;;;;;;5039456;28;20217;-81
2023/11/27 13:08:34;;;;;;;1.37;1.27;;;;;;;;;;5035994;28;20201;-82
2023/11/27 13:11:04;;;;;;;1.40;1.30;;;;;;;;;;5038579;28;20210;-82
2023/11/27 13:13:34;;;;;;;2.03;1.80;;;;;;;;;;5050181;28;20642;-83
2023/11/27 13:16:04;;;;;;;1.77;1.60;;;;;;;;;;5037784;28;20218;-82
2023/11/27 13:18:36;;;;;;;1.73;1.63;;;;;;;;;;5025130;28;20202;-82
2023/11/27 13:21:08;;;;;;;3.47;3.17;;;;;;;;;;5050471;28;20206;-82
2023/11/27 13:23:37;;;;;;;2.97;2.53;;;;;;;;;;5046014;28;20249;-83
2023/11/27 13:26:17;;;;;;;1.90;1.67;;;;;;;;;;5036959;28;20276;-83
2023/11/27 13:28:44;;;;;;;2.10;1.90;;;;;;;;;;5054684;28;20237;-84
2023/11/27 13:31:12;;;;;;;1.77;1.67;;;;;;;;;;5041770;28;20216;-83
2023/11/27 13:33:40;;;;;;;4.37;3.90;;;;;;;;;;5054690;28;20209;-83
2023/11/27 13:36:17;;;;;;;2.07;1.40;;;;;;;;;;5054624;28;20209;-82
2023/11/27 13:38:44;;;;;;;1.40;1.30;;;;;;;;;;5040717;28;20292;-83
2023/11/27 13:41:14;;;;;;;1.40;1.30;;;;;;;;;;5042398;28;20216;-84
2023/11/27 13:43:41;;;;;;;2.20;1.90;;;;;;;;;;5054301;28;20206;-84
2023/11/27 13:46:09;;;;;;;1.50;1.40;;;;;;;;;;5046262;28;20288;-83
2023/11/27 13:48:36;;;;;;;3.10;2.40;;;;;;;;;;5036642;28;20211;-83
2023/11/27 13:51:12;;;;;;;2.67;1.70;;;;;;;;;;5053829;28;20230;-83
2023/11/27 13:53:39;;;;;;;2.30;1.50;;;;;;;;;;5041188;28;20209;-87
2023/11/27 13:56:17;;;;;;;1.60;1.50;;;;;;;;;;5044042;28;20720;-83
2023/11/27 13:58:51;;;;;;;3.80;1.87;;;;;;;;;;5052725;28;20208;-84
2023/11/27 14:01:19;;;;;;;1.70;1.60;;;;;;;;;;5054325;28;20202;-83
2023/11/27 14:03:46;;;;;;;1.90;1.80;;;;;;;;;;5021154;28;20217;-84
2023/11/27 14:06:19;;;;;;;1.13;1.13;;;;;;;;;;5047605;28;20216;-84
2023/11/27 14:08:53;;;;;;;2.23;1.33;;;;;;;;;;5045853;28;20202;-84
2023/11/27 14:11:22;;;;;;;1.67;1.57;;;;;;;;;;5036685;28;20204;-83
2023/11/27 14:13:50;;;;;;;1.13;1.10;;;;;;;;;;5053678;28;20244;-83
2023/11/27 14:16:19;;;;;;;25.60;13.33;;;;;;;;;;5040335;28;20285;-83
2023/11/27 14:24:14;;;;;;;2.57;2.17;;;;;;;;;;5051540;28;20213;-84
2023/11/27 14:27:14;;;;;;;3.03;1.57;;;;;;;;;;5042682;28;20259;-84
2023/11/27 14:29:42;;;;;;;1.70;1.60;;;;;;;;;;5046561;28;20320;-84
2023/11/27 14:32:08;;;;;;;2.30;2.10;;;;;;;;;;5047220;28;20590;-84
2023/11/27 14:34:35;;;;;;;19.73;9.57;;;;;;;;;;5039008;28;20209;-83
2023/11/27 14:37:06;;;;;;;10.03;5.83;;;;;;;;;;5053441;28;20237;-86
2023/11/27 14:39:33;;;;;;;2.87;2.63;;;;;;;;;;5028078;28;20275;-84
2023/11/27 14:42:00;;;;;;;7.57;4.57;;;;;;;;;;5053407;28;20667;-84
2023/11/27 14:44:27;;;;;;;5.07;4.20;;;;;;;;;;5045451;28;20631;-84
2023/11/27 14:46:54;;;;;;;5.73;5.13;;;;;;;;;;5034550;28;20203;-84
2023/11/27 14:49:22;;;;;;;3.57;3.27;;;;;;;;;;5053395;28;20252;-83
2023/11/27 14:51:49;;;;;;;3.17;2.87;;;;;;;;;;5039641;28;20218;-85
2023/11/27 14:54:18;;;;;;;4.00;3.53;;;;;;;;;;5052773;28;20275;-84